createdAt,value
2018-03-23T00:02:46.556Z,95.40
2018-03-23T00:07:50.269Z,95.10
2018-03-23T00:12:53.888Z,95.00
2018-03-23T00:17:57.511Z,94.80
2018-03-23T00:23:01.152Z,94.80
2018-03-23T00:28:05.110Z,94.80
2018-03-23T00:33:08.437Z,94.90
2018-03-23T00:38:11.841Z,94.90
2018-03-23T00:43:15.192Z,94.70
2018-03-23T00:48:18.474Z,94.20
2018-03-23T00:53:22.194Z,94.00
2018-03-23T00:58:26.829Z,94.00
2018-03-23T01:03:30.456Z,94.00
2018-03-23T01:08:33.740Z,94.00
2018-03-23T01:13:37.006Z,94.00
2018-03-23T01:18:40.211Z,93.70
2018-03-23T01:23:44.772Z,94.00
2018-03-23T01:28:48.048Z,93.80
2018-03-23T01:33:51.320Z,94.40
2018-03-23T01:38:55.642Z,94.50
2018-03-23T01:43:59.458Z,94.20
2018-03-23T01:49:02.721Z,94.20
2018-03-23T01:54:05.927Z,93.80
2018-03-23T01:59:10.172Z,94.30
2018-03-23T02:04:13.393Z,94.20
2018-03-23T02:09:16.709Z,94.80
2018-03-23T02:14:19.944Z,94.60
2018-03-23T02:19:23.241Z,94.40
2018-03-23T02:24:26.517Z,94.60
2018-03-23T02:29:30.219Z,94.90
2018-03-23T02:34:33.555Z,94.90
2018-03-23T02:39:39.305Z,94.30
2018-03-23T02:44:42.831Z,94.00
2018-03-23T02:49:46.068Z,94.70
2018-03-23T02:54:49.448Z,94.70
2018-03-23T02:59:53.065Z,94.70
2018-03-23T03:04:56.955Z,94.70
2018-03-23T03:10:00.179Z,94.70
2018-03-23T03:15:03.700Z,94.70
2018-03-23T03:20:07.029Z,94.90
2018-03-23T03:25:10.275Z,94.80
2018-03-23T03:30:13.520Z,94.40
2018-03-23T03:35:16.862Z,94.50
2018-03-23T03:40:20.093Z,94.70
2018-03-23T03:45:23.476Z,94.90
2018-03-23T03:50:41.906Z,94.80
2018-03-23T03:55:45.149Z,94.70
2018-03-23T04:00:48.537Z,94.80
2018-03-23T04:05:52.246Z,94.30
2018-03-23T04:10:56.363Z,94.30
2018-03-23T04:16:01.463Z,94.50
2018-03-23T04:21:04.803Z,94.40
2018-03-23T04:26:08.054Z,94.90
2018-03-23T04:31:11.335Z,94.50
2018-03-23T04:36:14.543Z,94.40
2018-03-23T04:41:17.847Z,94.70
2018-03-23T04:46:21.168Z,94.40
2018-03-23T04:51:24.856Z,94.50
2018-03-23T04:56:28.075Z,94.50
2018-03-23T05:01:31.353Z,94.50
2018-03-23T05:06:34.587Z,93.90
2018-03-23T05:11:37.826Z,94.60
2018-03-23T05:16:41.048Z,94.60
2018-03-23T05:21:44.301Z,94.80
2018-03-23T05:26:47.535Z,94.80
2018-03-23T05:31:50.777Z,95.20
2018-03-23T05:36:54.006Z,94.90
2018-03-23T05:41:57.255Z,94.40
2018-03-23T05:47:00.469Z,94.70
2018-03-23T05:52:03.730Z,94.40
2018-03-23T05:57:07.959Z,94.40
2018-03-23T06:02:11.229Z,94.70
2018-03-23T06:07:14.451Z,95.50
2018-03-23T06:12:19.693Z,95.40
2018-03-23T06:17:22.907Z,95.50
2018-03-23T06:22:28.168Z,95.70
2018-03-23T06:27:31.391Z,95.80
2018-03-23T06:32:34.689Z,95.90
2018-03-23T06:37:37.895Z,95.70
2018-03-23T06:42:41.204Z,95.40
2018-03-23T06:47:44.462Z,95.90
2018-03-23T06:52:47.688Z,95.20
2018-03-23T06:57:51.039Z,95.10
2018-03-23T07:02:54.284Z,95.20
2018-03-23T07:07:57.501Z,96.20
2018-03-23T07:13:00.788Z,95.60
2018-03-23T07:18:04.033Z,96.50
2018-03-23T07:23:07.245Z,95.50
2018-03-23T07:28:10.452Z,95.40
2018-03-23T07:33:13.693Z,94.70
2018-03-23T07:38:17.332Z,95.30
2018-03-23T07:43:20.548Z,95.30
2018-03-23T07:48:23.785Z,94.70
2018-03-23T07:53:27.118Z,93.90
2018-03-23T07:58:30.747Z,93.90
2018-03-23T08:03:34.446Z,94.20
2018-03-23T08:08:37.676Z,94.20
2018-03-23T08:13:40.917Z,93.80
2018-03-23T08:18:44.150Z,93.80
2018-03-23T08:23:47.470Z,94.60
2018-03-23T08:28:51.083Z,93.30
2018-03-23T08:33:54.392Z,93.30
2018-03-23T08:38:57.618Z,91.20
2018-03-23T08:44:01.247Z,89.60
2018-03-23T08:49:04.497Z,89.60
2018-03-23T08:54:07.856Z,88.20
2018-03-23T08:59:11.134Z,89.50
2018-03-23T09:04:15.362Z,88.70
2018-03-23T09:09:19.080Z,87.60
2018-03-23T09:14:22.302Z,87.50
2018-03-23T09:19:25.912Z,87.70
2018-03-23T09:24:29.524Z,85.60
2018-03-23T09:29:33.141Z,85.10
2018-03-23T09:34:36.751Z,84.30
2018-03-23T09:39:40.367Z,84.80
2018-03-23T09:44:44.084Z,86.00
2018-03-23T09:49:47.814Z,85.10
2018-03-23T09:54:51.101Z,85.10
2018-03-23T09:59:54.316Z,84.20
2018-03-23T10:04:57.923Z,86.60
2018-03-23T10:10:01.184Z,86.60
2018-03-23T10:15:04.403Z,86.10
2018-03-23T10:20:07.648Z,87.70
2018-03-23T10:25:11.257Z,82.60
2018-03-23T10:30:14.887Z,80.60
2018-03-23T10:35:18.513Z,82.60
2018-03-23T10:40:21.717Z,82.60
2018-03-23T10:45:24.974Z,82.60
2018-03-23T10:50:28.192Z,81.10
2018-03-23T10:55:31.506Z,81.50
2018-03-23T11:00:40.269Z,79.50
2018-03-23T11:05:43.489Z,80.20
2018-03-23T11:10:46.854Z,80.10
2018-03-23T11:15:50.162Z,78.30
2018-03-23T11:20:53.778Z,76.40
2018-03-23T11:25:57.497Z,73.10
2018-03-23T11:31:01.163Z,74.00
2018-03-23T11:36:04.421Z,74.00
2018-03-23T11:41:07.723Z,70.70
2018-03-23T11:46:10.997Z,67.30
2018-03-23T11:51:14.242Z,63.90
2018-03-23T11:56:17.878Z,63.20
2018-03-23T12:01:21.105Z,63.30
2018-03-23T12:06:24.311Z,63.30
2018-03-23T12:11:27.541Z,62.90
2018-03-23T12:16:30.774Z,65.00
2018-03-23T12:21:34.094Z,63.60
2018-03-23T12:26:37.803Z,66.20
2018-03-23T12:31:42.254Z,68.00
2018-03-23T12:36:45.493Z,68.10
2018-03-23T12:41:48.768Z,68.80
2018-03-23T12:46:51.985Z,66.40
2018-03-23T12:51:55.225Z,66.50
2018-03-23T12:56:58.495Z,68.80
2018-03-23T13:02:01.864Z,68.40
2018-03-23T13:07:05.123Z,67.10
2018-03-23T13:12:08.339Z,68.60
2018-03-23T13:17:11.607Z,66.60
2018-03-23T13:22:15.245Z,68.40
2018-03-23T13:27:18.513Z,68.40
2018-03-23T13:32:21.921Z,69.40
2018-03-23T13:37:25.182Z,67.40
2018-03-23T13:42:28.568Z,67.40
2018-03-23T13:47:32.049Z,67.70
2018-03-23T13:52:35.688Z,65.90
2018-03-23T13:57:38.911Z,65.90
2018-03-23T14:02:42.197Z,67.50
2018-03-23T14:07:45.584Z,68.20
2018-03-23T14:12:48.996Z,70.80
2018-03-23T14:17:52.325Z,72.30
2018-03-23T14:22:56.027Z,73.50
2018-03-23T14:27:59.763Z,73.70
2018-03-23T14:33:03.157Z,73.70
2018-03-23T14:38:06.822Z,73.00
2018-03-23T14:43:10.273Z,73.00
2018-03-23T14:48:13.931Z,72.70
2018-03-23T14:53:17.404Z,72.70
2018-03-23T14:58:21.117Z,72.30
2018-03-23T15:03:24.356Z,72.30
2018-03-23T15:08:29.848Z,73.30
2018-03-23T15:13:33.275Z,73.40
2018-03-23T15:18:36.509Z,73.60
2018-03-23T15:23:40.124Z,73.10
2018-03-23T15:28:43.778Z,71.80
2018-03-23T15:33:47.000Z,71.80
2018-03-23T15:38:50.382Z,72.50
2018-03-23T15:43:53.620Z,74.00
2018-03-23T15:48:57.026Z,76.80
2018-03-23T15:54:02.043Z,75.20
2018-03-23T15:59:06.232Z,76.80
2018-03-23T16:04:09.625Z,74.10
2018-03-23T16:09:12.901Z,74.10
2018-03-23T16:14:16.224Z,74.50
2018-03-23T16:19:19.580Z,75.30
2018-03-23T16:24:23.302Z,77.60
2018-03-23T16:29:26.980Z,75.90
2018-03-23T16:34:30.313Z,75.90
2018-03-23T16:39:33.948Z,76.20
2018-03-23T16:44:37.643Z,77.00
2018-03-23T16:49:40.885Z,77.00
2018-03-23T16:54:44.204Z,78.20
2018-03-23T16:59:47.569Z,79.40
2018-03-23T17:04:51.316Z,79.60
2018-03-23T17:09:55.609Z,79.60
2018-03-23T17:14:58.920Z,79.60
2018-03-23T17:20:02.229Z,80.10
2018-03-23T17:25:05.600Z,80.40
2018-03-23T17:30:08.948Z,82.20
2018-03-23T17:35:12.165Z,83.40
2018-03-23T17:40:15.971Z,83.70
2018-03-23T17:45:19.668Z,84.60
2018-03-23T17:50:22.996Z,84.60
2018-03-23T17:55:26.277Z,84.60
2018-03-23T18:00:29.615Z,85.00
2018-03-23T18:05:32.940Z,84.30
2018-03-23T18:10:36.582Z,84.40
2018-03-23T18:15:40.045Z,84.40
2018-03-23T18:20:43.293Z,85.10
2018-03-23T18:25:46.570Z,84.80
2018-03-23T18:30:50.232Z,84.80
2018-03-23T18:35:53.479Z,84.80
2018-03-23T18:40:57.886Z,85.50
2018-03-23T18:46:01.177Z,85.50
2018-03-23T18:51:04.433Z,85.70
2018-03-23T18:56:08.053Z,85.10
2018-03-23T19:01:11.688Z,85.60
2018-03-23T19:06:14.938Z,85.60
2018-03-23T19:11:18.186Z,85.10
2018-03-23T19:16:21.524Z,85.80
2018-03-23T19:21:24.867Z,86.60
2018-03-23T19:26:28.100Z,86.90
2018-03-23T19:31:31.332Z,87.60
2018-03-23T19:36:34.582Z,87.90
2018-03-23T19:41:38.870Z,88.30
2018-03-23T19:46:42.127Z,88.70
2018-03-23T19:51:45.412Z,89.50
2018-03-23T19:56:49.047Z,89.40
2018-03-23T20:01:52.351Z,89.40
2018-03-23T20:06:55.591Z,90.20
2018-03-23T20:11:58.851Z,90.60
2018-03-23T20:17:02.167Z,90.60
2018-03-23T20:22:05.791Z,89.50
2018-03-23T20:32:44.909Z,88.60
2018-03-23T20:37:48.422Z,89.00
2018-03-23T20:42:52.106Z,89.90
2018-03-23T20:47:55.448Z,90.00
2018-03-23T20:52:59.251Z,90.60
2018-03-23T20:58:02.974Z,91.20
2018-03-23T21:03:06.625Z,92.30
2018-03-23T21:08:10.007Z,92.30
2018-03-23T21:13:13.382Z,92.60
2018-03-23T21:18:17.069Z,92.00
2018-03-23T21:23:20.397Z,92.00
2018-03-23T21:28:23.672Z,91.70
2018-03-23T21:33:26.982Z,92.00
2018-03-23T21:38:30.290Z,93.30
2018-03-23T21:43:33.828Z,92.70
2018-03-23T21:48:37.220Z,92.30
2018-03-23T21:53:40.520Z,92.80
2018-03-23T21:58:43.749Z,92.20
2018-03-23T22:03:47.263Z,92.30
2018-03-23T22:08:50.494Z,93.10
2018-03-23T22:13:55.316Z,93.60
2018-03-23T22:18:59.720Z,93.40
2018-03-23T22:24:03.453Z,93.70
2018-03-23T22:29:06.828Z,93.10
2018-03-23T22:34:10.095Z,93.40
2018-03-23T22:39:13.495Z,92.90
2018-03-23T22:44:16.933Z,93.80
2018-03-23T22:49:20.761Z,95.00
2018-03-23T22:54:23.996Z,95.00
2018-03-23T22:59:28.875Z,95.30
2018-03-23T23:04:32.106Z,94.90
2018-03-23T23:09:35.594Z,95.00
2018-03-23T23:14:39.282Z,95.20
2018-03-23T23:19:43.431Z,95.20
2018-03-23T23:24:46.731Z,94.80
2018-03-23T23:29:50.884Z,94.60
2018-03-23T23:34:54.156Z,94.50
2018-03-23T23:39:57.377Z,95.00
2018-03-23T23:45:01.195Z,93.80
2018-03-23T23:50:04.830Z,93.70
2018-03-23T23:55:08.048Z,93.50
